• Join FlightAware (Why Join?)
  • Login
  • US Flag 
02:33PM EDT


 

Airport Tracker/Info


-or-


 

Live Flight TrackerFlight Track Log ✈ SCX8750 ✈ 07-Jan-2014 ✈ KFWA - KSFB

Flight Track Log - Related Links

Times and Time Zones

All times are in EST time to prevent confusion due to time zone crossing. See the SCX8750 flight status page for this flight to view local times or setup timezone preferences in your user account.

Time Position Orientation Groundspeed Altitude Reporting Facility
EST Latitude Longitude Course Direction KTS MPH feet Rate Location/Type
05:24PM 40.9069 -85.1697 143° Southeast 214 246 4,200  Level Chicago Center
05:25PM 40.8486 -85.1186 146° Southeast 234 269 6,200 2,100 Climbing Chicago Center
05:26PM 40.7806 -85.0594 147° Southeast 283 326 8,600 2,100 Climbing Chicago Center
05:27PM 40.6900 -84.9811 147° Southeast 319 367 10,600 2,220 Climbing Chicago Center
05:28PM 40.1087 -84.8675 151° Southeast  Level Estimated
05:28PM 40.6008 -84.9011 146° Southeast 373 429 13,200  Level Chicago Center
05:29PM 39.9999 -84.8271 143° Southeast  Level Estimated
05:29PM 40.5094 -84.8214 146° Southeast 390 449 15,600  Level Chicago Center
05:30PM 40.4050 -84.7472 152° Southeast 419 482 17,800 2,460 Climbing Chicago Center
05:31PM 40.2889 -84.7258 172° South 428 493 20,700 2,520 Climbing Chicago Center
05:32PM 40.1692 -84.7033 172° South 434 499 23,000 2,040 Climbing Chicago Center
05:37PM 39.4743 -84.5566 172° South 472 543 33,900 1,920 Climbing FlightAware ADS-B (KBRY)
05:38PM 39.3290 -84.5129 167° South 463 533 36,000 1,200 Climbing FlightAware ADS-B (KCVG)
05:40PM 39.1837 -84.4861 172° South 448 516 36,800 720 Climbing FlightAware ADS-B (KBRY)
05:40PM 39.1089 -84.4718 172° South 451 519 37,400 720 Climbing FlightAware ADS-B (KCVG)
05:41PM 38.9823 -84.4477 172° South 461 531 38,100 840 Climbing FlightAware ADS-B (KCVG)
05:42PM 38.9577 -84.4430 172° South 460 529 38,400 960 Climbing FlightAware ADS-B (KCVG)
05:42PM 38.8569 -84.4238 172° South 451 519 39,000 360 Climbing FlightAware ADS-B (KCVG)
05:43PM 38.7432 -84.4028 172° South 446 513 39,000  Level FlightAware ADS-B (KPMH)
05:45PM 38.5222 -84.3618 172° South 447 514 39,000  Level FlightAware ADS-B (KBRY)
05:46PM 38.3734 -84.3347 172° South 448 516 39,000  Level FlightAware ADS-B (KBRY)
05:47PM 38.2238 -84.3070 172° South 448 516 39,000  Level FlightAware ADS-B (KBRY)
05:48PM 38.1111 -84.2864 172° South 447 514 39,000  Level FlightAware ADS-B (KBRY)
05:49PM 37.9796 -84.2623 172° South 443 510 39,000  Level FlightAware ADS-B (KBRY)
05:50PM 37.8577 -84.2404 172° South 441 507 39,000  Level FlightAware ADS-B (KBRY)
05:51PM 37.7325 -84.2176 172° South 439 505 39,000  Level FlightAware ADS-B (KBRY)
05:52PM 37.6214 -84.1975 172° South 436 502 39,000  Level FlightAware ADS-B (KBRY)
05:54PM 37.4760 -84.1711 172° South 434 499 39,000  Level FlightAware ADS-B (KBRY)
05:55PM 37.3365 -84.1463 172° South 434 499 39,000  Level FlightAware ADS-B (KBRY)
05:56PM 37.2143 -84.1245 172° South 431 496 39,000  Level FlightAware ADS-B (KBRY)
05:57PM 37.1143 -84.1066 172° South 429 494 39,000  Level FlightAware ADS-B (KBRY)
06:00PM 36.7390 -84.0401 172° South 418 481 39,000  Level FlightAware ADS-B (KBRY)
06:01PM 36.6589 -84.0261 172° South 416 479 39,000  Level FlightAware ADS-B (KBRY)
06:02PM 36.5003 -83.9983 172° South 417 480 39,000  Level Indianapolis Center
06:03PM 36.3753 -83.9761 172° South 419 482 39,000  Level Indianapolis Center
06:04PM 36.2561 -83.9553 172° South 426 490 39,000  Level Indianapolis Center
06:05PM 36.1381 -83.9344 172° South 426 490 39,000  Level Indianapolis Center
06:06PM 36.0208 -83.9136 172° South 424 488 39,000  Level Indianapolis Center
06:12PM 35.3499 -83.7304 172° South 412 474 39,000  Level FlightAware ADS-B (KDZJ)
06:12PM 35.2749 -83.7082 166° South 413 475 39,000  Level FlightAware ADS-B (KDZJ)
06:13PM 35.1982 -83.6855 166° South 412 474 39,000  Level FlightAware ADS-B (KDZJ)
06:14PM 35.1204 -83.6628 167° South 413 475 39,000  Level FlightAware ADS-B (KDZJ)
06:14PM 35.0462 -83.6413 167° South 415 478 39,000  Level FlightAware ADS-B (KDZJ)
06:15PM 34.9705 -83.6191 167° South 418 481 39,000  Level FlightAware ADS-B (KDZJ)
06:16PM 34.8925 -83.5965 167° South 429 494 39,000  Level FlightAware ADS-B (KDZJ)
06:16PM 34.8163 -83.5744 167° South 427 491 39,000  Level FlightAware ADS-B (KDZJ)
06:17PM 34.7446 -83.5536 167° South 418 481 39,000  Level FlightAware ADS-B (KDZJ)
06:18PM 34.6609 -83.5293 167° South 416 479 39,000  Level FlightAware ADS-B (KDZJ)
06:18PM 34.5877 -83.5081 167° South 415 478 39,000  Level FlightAware ADS-B (KDZJ)
06:19PM 34.5200 -83.4887 167° South 413 475 39,000  Level FlightAware ADS-B (KDZJ)
06:20PM 34.4343 -83.4639 167° South 412 474 39,000  Level FlightAware ADS-B (KDZJ)
06:20PM 34.3708 -83.4453 166° South 411 473 39,000  Level FlightAware ADS-B (KDZJ)
06:21PM 34.2831 -83.4200 167° South 417 480 39,000  Level FlightAware ADS-B (KDZJ)
06:22PM 34.2067 -83.3984 167° South 417 480 39,000  Level FlightAware ADS-B (KDZJ)
06:22PM 34.1373 -83.3789 167° South 416 479 39,000  Level FlightAware ADS-B (KDZJ)
06:23PM 34.0581 -83.3562 167° South 416 479 39,000  Level FlightAware ADS-B (KDZJ)
06:24PM 33.9486 -83.3250 167° South 411 473 39,000  Level Atlanta Center
06:25PM 33.8397 -83.2686 157° South 422 486 39,000  Level Atlanta Center
06:26PM 33.7267 -83.2119 157° South 436 502 39,000  Level Atlanta Center
06:27PM 33.6261 -83.1606 157° South 436 502 39,000  Level Atlanta Center
06:28PM 33.5172 -83.1044 157° South 441 507 39,000  Level Atlanta Center
06:29PM 33.4061 -83.0483 157° South 433 498 39,000  Level Atlanta Center
06:30PM 33.2950 -82.9925 157° South 433 498 39,000 -480 Level Atlanta Center
06:31PM 33.1881 -82.9367 156° South 438 504 38,100 -900 Descending Atlanta Center
06:32PM 33.0792 -82.8761 155° Southeast 428 493 37,200 -900 Descending Atlanta Center
06:33PM 32.9742 -82.8231 157° South 422 486 36,300 -600 Descending Atlanta Center
06:34PM 32.8544 -82.7628 157° South 428 493 36,000 -180 Descending Atlanta Center
06:35PM 32.7497 -82.7075 156° South 423 487 36,000  Level Atlanta Center
06:36PM 32.6406 -82.6500 156° South 423 487 36,000  Level Atlanta Center
06:37PM 32.5314 -82.5950 157° South 423 487 36,000  Level Atlanta Center
06:41PM 32.1300 -82.3919 157° South 400 460 36,000  Level Jacksonville Center
06:42PM 32.0233 -82.3364 156° South 400 460 36,000  Level Jacksonville Center
06:43PM 31.9144 -82.2881 159° South 412 474 36,000  Level Jacksonville Center
06:44PM 31.8100 -82.2325 156° South 417 480 36,000 -120 Level Jacksonville Center
06:45PM 31.7114 -82.1844 157° South 417 480 35,800 -660 Descending Jacksonville Center
06:46PM 31.6089 -82.1364 158° South 412 474 34,700 -1,140 Descending Jacksonville Center
06:47PM 31.5147 -82.0883 156° South 393 452 33,600 -1,020 Descending Jacksonville Center
06:48PM 31.4183 -82.0431 158° South 383 441 32,700 -960 Descending Jacksonville Center
06:49PM 31.3197 -81.9928 156° South 378 435 31,700 -960 Descending Jacksonville Center
06:50PM 31.2192 -81.9428 157° South 378 435 30,800 -900 Descending Jacksonville Center
06:51PM 31.1186 -81.8903 156° South 383 441 30,000 -1,200 Descending Jacksonville Center
06:52PM 31.0200 -81.8453 159° South 383 441 28,500 -1,800 Descending Jacksonville Center
06:53PM 30.9300 -81.7978 156° South 378 435 26,500 -1,980 Descending Jacksonville Center
06:54PM 30.8356 -81.7531 158° South 372 428 24,600 -1,260 Descending Jacksonville Center
06:55PM 30.7433 -81.7081 157° South 366 421 24,000 -300 Descending Jacksonville Center
06:56PM 30.6489 -81.6611 157° South 366 421 24,000  Level Jacksonville Center
06:57PM 30.5525 -81.6142 157° South 372 428 24,000  Level Jacksonville Center
06:58PM 30.4600 -81.5672 156° South 372 428 24,000  Level Jacksonville Center
06:59PM 30.3553 -81.5206 159° South 372 428 24,000 -60 Level Jacksonville Center
07:00PM 30.2608 -81.4808 160° South 372 428 23,900 -600 Descending Jacksonville Center
07:01PM 30.1686 -81.4461 162° South 365 420 22,900 -1,020 Descending Jacksonville Center
07:02PM 30.0764 -81.4117 162° South 360 414 21,900 -1,260 Descending Jacksonville Center
07:03PM 29.9839 -81.3747 161° South 355 409 20,400 -1,740 Descending Jacksonville Center
07:04PM 29.9294 -81.3564 164° South 344 396 19,200 -1,920 Descending Jacksonville Center
07:04PM 29.8939 -81.3425 161° South 350 403 18,500 -1,800 Descending Jacksonville Center
07:04PM 29.8875 -81.3403 163° South 344 396 18,300 -1,200 Descending Jacksonville Center
07:05PM 29.8036 -81.3081 162° South 345 397 17,300 -1,200 Descending Jacksonville Center
07:05PM 29.7972 -81.3058 163° South 338 389 17,100 -1,800 Descending Jacksonville Center
07:06PM 29.7156 -81.2761 162° South 339 390 15,500 -1,920 Descending Jacksonville Center
07:06PM 29.7031 -81.2692 154° Southeast 329 379 15,200 -1,320 Descending Jacksonville Center
07:07PM 29.6108 -81.2492 169° South 311 358 13,900 -1,140 Descending Jacksonville Center
07:08PM 29.5461 -81.2383 172° South 318 366 13,100 -1,020 Descending Jacksonville Center
07:08PM 29.5250 -81.2361 175° South 309 356 12,900 -1,320 Descending Jacksonville Center
07:09PM 29.4603 -81.2231 170° South 313 360 11,800 -1,500 Descending Jacksonville Center
07:09PM 29.4519 -81.2278 206° Southwest 310 357 11,700 -1,500 Descending Jacksonville Center
07:10PM 29.3683 -81.2150 172° South 301 346 10,200 -1,200 Descending Jacksonville Center
07:11PM 29.2908 -81.2044 173° South 277 319 9,300 -1,080 Descending Jacksonville Center
07:17PM 28.9004 -81.2228 173° South 254 292 3,200 -1,080 Descending FlightAware ADS-B (KSFB)
07:17PM 28.8880 -81.2424 234° Southwest 255 293 2,900 -1,020 Descending FlightAware ADS-B (KSFB)
07:17PM 28.8715 -81.2690 235° Southwest 253 291 2,500 -600 Descending FlightAware ADS-B (KSFB)
07:18PM 28.8492 -81.3064 236° Southwest 227 261 2,300 -540 Descending FlightAware ADS-B (KSFB)
07:19PM 28.8294 -81.3401 236° Southwest 217 250 1,800 -720 Descending FlightAware ADS-B (KSFB)
07:19PM 28.8104 -81.3708 235° Southwest 200 230 1,600 -600 Descending FlightAware ADS-B (KSFB)
07:19PM 28.7980 -81.3825 220° Southwest 186 214 1,400 -900 Descending FlightAware ADS-B (KSFB)
07:20PM 28.7813 -81.3777 166° South 179 206 1,000 -600 Descending FlightAware ADS-B (KSFB)
07:20PM 28.7796 -81.3651 99° East 146 168 1,000  Level FlightAware ADS-B (KSFB)
07:21PM 28.7817 -81.3394 85° East 140 161 1,000 -240 Level FlightAware ADS-B (KSFB)
07:21PM 28.7816 -81.3207 90° East 142 163 800 -660 Descending FlightAware ADS-B (KSFB)
07:21PM 28.7817 -81.3029 90° East 137 158 500 -720 Descending FlightAware ADS-B (KSFB)
07:22PM 28.7817 -81.2932 90° East 140 161 300 -660 Descending FlightAware ADS-B (KSFB)
07:29PM 28.7667 -81.2333 199° South  Level FlightAware Approximate
07:30PM 28.7770 -81.2349 199° South  Level Estimated
07:31PM 28.7770 -81.2349 199° South  Level Estimated
07:32PM 28.7770 -81.2349 199° South  Level Estimated
07:33PM 28.7770 -81.2349 199° South  Level Estimated